首页
METAR-TAF:

METAR-TAF

机场 :

多特蒙德机场

多特蒙德, 德国

纬度: 51-31N, 经度: 007-37E, 海拔: 127米

当前天气观测

该预报发布于36分钟前的06:50 UTC
风速3节,风向,在东北东南之间变化
温度 0°C
湿度 93%
气压 1012 hPa
能见度10公里或以上
1500米以下无云,无积雨云

METAR: EDLW 170650Z 10003KT 050V140 CAVOK M00/M01 Q1012

时间: 08:26 (07:26 UTC)

预报

该预报发布于1小时和31分钟前的05:55 UTC
预报有效从17日的 06点(UTC)到 18日的 06点(UTC)
风速7节,风向南转南东
能见度10公里或以上
1500米以下无云,无积雨云
成为
从 17日的 08点(UTC)到 17日的 11点(UTC)
风速8节,风向北转东北
短暂存在
从 17日的 17点(UTC)到 18日的 06点(UTC)
能見度: 4000
多云层高于1400英尺
小雨
几率 40% :
短暂存在
从 17日的 20点(UTC)到 17日的 22点(UTC)
能見度: 2500
多云层高于800英尺

TAF: EDLW 170555Z 1706/1806 16007KT CAVOK BECMG 1708/1711 02008KT TEMPO 1717/1806 4000 -RA BKN014 PROB40 TEMPO 1720/1722 2500 RA BKN008

超过4000个机场的气象观测和天气预报(METAR&TAF报告)。

可查询的气象台以黄色和红色小点在地图上表示。

将鼠标移到小点上方,可查看气象台名称。

然后点击查看天气观测和预报。

如需切换地图:点击带黑十字的绿色按钮放大地图;点击带横线的绿色按钮缩小地图;或者点击绿色箭头查看邻近地区的地图。


METAR-TAF: